sensor_id;sensor_type;location;lat;lon;timestamp;P1;durP1;ratioP1;P2;durP2;ratioP2
78542;SDS011;67836;52.430;14.446;2023-09-30T00:01:59;8.98;;;3.90;;
78542;SDS011;67836;52.430;14.446;2023-09-30T00:04:43;8.50;;;3.55;;
78542;SDS011;67836;52.430;14.446;2023-09-30T00:07:27;9.38;;;3.53;;
78542;SDS011;67836;52.430;14.446;2023-09-30T00:10:11;6.93;;;3.63;;
78542;SDS011;67836;52.430;14.446;2023-09-30T00:12:55;7.15;;;3.00;;
78542;SDS011;67836;52.430;14.446;2023-09-30T00:15:39;8.50;;;3.28;;
78542;SDS011;67836;52.430;14.446;2023-09-30T00:18:24;6.00;;;2.85;;
78542;SDS011;67836;52.430;14.446;2023-09-30T00:21:08;7.53;;;3.17;;
78542;SDS011;67836;52.430;14.446;2023-09-30T00:23:52;7.32;;;3.30;;
78542;SDS011;67836;52.430;14.446;2023-09-30T00:26:36;7.03;;;2.88;;
78542;SDS011;67836;52.430;14.446;2023-09-30T00:29:21;7.70;;;3.67;;
78542;SDS011;67836;52.430;14.446;2023-09-30T00:32:05;6.10;;;2.25;;
78542;SDS011;67836;52.430;14.446;2023-09-30T00:34:49;2.78;;;1.08;;
78542;SDS011;67836;52.430;14.446;2023-09-30T00:37:35;1.65;;;0.47;;
78542;SDS011;67836;52.430;14.446;2023-09-30T00:40:19;2.05;;;0.60;;
78542;SDS011;67836;52.430;14.446;2023-09-30T00:43:03;2.22;;;0.60;;
78542;SDS011;67836;52.430;14.446;2023-09-30T00:46:01;1.85;;;0.70;;
78542;SDS011;67836;52.430;14.446;2023-09-30T00:48:46;1.73;;;0.60;;
78542;SDS011;67836;52.430;14.446;2023-09-30T00:51:30;2.10;;;0.50;;
78542;SDS011;67836;52.430;14.446;2023-09-30T00:54:14;3.05;;;0.68;;
78542;SDS011;67836;52.430;14.446;2023-09-30T00:56:58;2.08;;;0.68;;
78542;SDS011;67836;52.430;14.446;2023-09-30T00:59:44;4.05;;;0.80;;
78542;SDS011;67836;52.430;14.446;2023-09-30T01:02:28;4.55;;;1.10;;
78542;SDS011;67836;52.430;14.446;2023-09-30T01:05:12;2.70;;;1.00;;
78542;SDS011;67836;52.430;14.446;2023-09-30T01:07:57;1.65;;;0.40;;
78542;SDS011;67836;52.430;14.446;2023-09-30T01:10:41;4.30;;;0.88;;
78542;SDS011;67836;52.430;14.446;2023-09-30T01:13:31;3.47;;;0.93;;
78542;SDS011;67836;52.430;14.446;2023-09-30T01:16:15;4.35;;;0.90;;
78542;SDS011;67836;52.430;14.446;2023-09-30T01:19:00;2.72;;;0.85;;
78542;SDS011;67836;52.430;14.446;2023-09-30T01:21:44;6.18;;;0.88;;
78542;SDS011;67836;52.430;14.446;2023-09-30T01:24:38;2.75;;;1.10;;
78542;SDS011;67836;52.430;14.446;2023-09-30T01:27:22;2.47;;;0.57;;
78542;SDS011;67836;52.430;14.446;2023-09-30T01:30:06;5.47;;;0.90;;
78542;SDS011;67836;52.430;14.446;2023-09-30T01:32:54;4.18;;;1.00;;
78542;SDS011;67836;52.430;14.446;2023-09-30T01:35:38;4.47;;;1.13;;
78542;SDS011;67836;52.430;14.446;2023-09-30T01:38:22;6.10;;;1.70;;
78542;SDS011;67836;52.430;14.446;2023-09-30T01:41:06;3.20;;;0.98;;
78542;SDS011;67836;52.430;14.446;2023-09-30T01:43:50;3.50;;;1.25;;
78542;SDS011;67836;52.430;14.446;2023-09-30T01:46:34;4.30;;;1.20;;
78542;SDS011;67836;52.430;14.446;2023-09-30T01:49:18;1.52;;;0.80;;
78542;SDS011;67836;52.430;14.446;2023-09-30T01:52:02;8.32;;;1.55;;
78542;SDS011;67836;52.430;14.446;2023-09-30T01:54:46;4.88;;;0.80;;
78542;SDS011;67836;52.430;14.446;2023-09-30T01:57:30;2.78;;;1.00;;
78542;SDS011;67836;52.430;14.446;2023-09-30T02:00:14;2.75;;;1.00;;
78542;SDS011;67836;52.430;14.446;2023-09-30T02:05:42;2.65;;;1.10;;
78542;SDS011;67836;52.430;14.446;2023-09-30T02:08:27;2.28;;;1.00;;
78542;SDS011;67836;52.430;14.446;2023-09-30T02:11:11;4.07;;;0.80;;
78542;SDS011;67836;52.430;14.446;2023-09-30T02:13:57;6.45;;;1.20;;
78542;SDS011;67836;52.430;14.446;2023-09-30T02:16:41;4.45;;;1.23;;
78542;SDS011;67836;52.430;14.446;2023-09-30T02:19:25;4.30;;;0.93;;
78542;SDS011;67836;52.430;14.446;2023-09-30T02:22:11;4.38;;;1.40;;
78542;SDS011;67836;52.430;14.446;2023-09-30T02:24:55;4.10;;;1.15;;
78542;SDS011;67836;52.430;14.446;2023-09-30T02:27:40;6.00;;;1.17;;
78542;SDS011;67836;52.430;14.446;2023-09-30T02:30:24;5.13;;;1.00;;
78542;SDS011;67836;52.430;14.446;2023-09-30T02:33:09;3.83;;;1.10;;
78542;SDS011;67836;52.430;14.446;2023-09-30T02:35:53;6.85;;;1.52;;
78542;SDS011;67836;52.430;14.446;2023-09-30T02:38:36;2.88;;;0.93;;
78542;SDS011;67836;52.430;14.446;2023-09-30T02:41:21;5.07;;;1.13;;
78542;SDS011;67836;52.430;14.446;2023-09-30T02:44:05;2.92;;;0.88;;
78542;SDS011;67836;52.430;14.446;2023-09-30T02:46:49;5.75;;;1.35;;
78542;SDS011;67836;52.430;14.446;2023-09-30T02:49:33;3.60;;;1.30;;
78542;SDS011;67836;52.430;14.446;2023-09-30T02:52:17;6.85;;;1.70;;
78542;SDS011;67836;52.430;14.446;2023-09-30T02:55:01;4.75;;;1.10;;
78542;SDS011;67836;52.430;14.446;2023-09-30T02:57:46;8.80;;;1.88;;
78542;SDS011;67836;52.430;14.446;2023-09-30T03:00:30;3.65;;;1.38;;
78542;SDS011;67836;52.430;14.446;2023-09-30T03:03:16;6.53;;;1.55;;
78542;SDS011;67836;52.430;14.446;2023-09-30T03:08:44;7.22;;;1.58;;
78542;SDS011;67836;52.430;14.446;2023-09-30T03:11:27;7.97;;;1.70;;
78542;SDS011;67836;52.430;14.446;2023-09-30T03:14:13;7.25;;;1.67;;
78542;SDS011;67836;52.430;14.446;2023-09-30T03:17:00;5.32;;;1.50;;
78542;SDS011;67836;52.430;14.446;2023-09-30T03:19:44;6.25;;;1.45;;
78542;SDS011;67836;52.430;14.446;2023-09-30T03:22:28;6.50;;;1.40;;
78542;SDS011;67836;52.430;14.446;2023-09-30T03:25:12;9.07;;;1.77;;
78542;SDS011;67836;52.430;14.446;2023-09-30T03:27:56;5.35;;;1.50;;
78542;SDS011;67836;52.430;14.446;2023-09-30T03:30:40;10.43;;;1.92;;
78542;SDS011;67836;52.430;14.446;2023-09-30T03:33:24;6.68;;;2.22;;
78542;SDS011;67836;52.430;14.446;2023-09-30T03:36:09;7.72;;;1.33;;
78542;SDS011;67836;52.430;14.446;2023-09-30T03:38:53;7.78;;;1.88;;
78542;SDS011;67836;52.430;14.446;2023-09-30T03:41:38;6.78;;;1.60;;
78542;SDS011;67836;52.430;14.446;2023-09-30T03:44:22;10.70;;;1.85;;
78542;SDS011;67836;52.430;14.446;2023-09-30T03:47:09;7.93;;;1.35;;
78542;SDS011;67836;52.430;14.446;2023-09-30T03:49:54;4.30;;;1.20;;
78542;SDS011;67836;52.430;14.446;2023-09-30T03:52:38;10.52;;;1.90;;
78542;SDS011;67836;52.430;14.446;2023-09-30T03:55:22;7.13;;;2.03;;
78542;SDS011;67836;52.430;14.446;2023-09-30T03:58:07;8.27;;;1.98;;
78542;SDS011;67836;52.430;14.446;2023-09-30T04:00:50;6.60;;;1.65;;
78542;SDS011;67836;52.430;14.446;2023-09-30T04:03:35;3.88;;;1.08;;
78542;SDS011;67836;52.430;14.446;2023-09-30T04:06:21;6.72;;;2.00;;
78542;SDS011;67836;52.430;14.446;2023-09-30T04:09:05;5.50;;;1.60;;
78542;SDS011;67836;52.430;14.446;2023-09-30T04:11:53;6.95;;;1.85;;
78542;SDS011;67836;52.430;14.446;2023-09-30T04:14:37;11.18;;;1.88;;
78542;SDS011;67836;52.430;14.446;2023-09-30T04:20:07;7.97;;;1.75;;
78542;SDS011;67836;52.430;14.446;2023-09-30T04:22:59;9.88;;;2.00;;
78542;SDS011;67836;52.430;14.446;2023-09-30T04:25:46;8.05;;;1.50;;
78542;SDS011;67836;52.430;14.446;2023-09-30T04:28:30;5.45;;;1.20;;
78542;SDS011;67836;52.430;14.446;2023-09-30T04:31:14;8.88;;;1.73;;
78542;SDS011;67836;52.430;14.446;2023-09-30T04:33:58;11.15;;;1.73;;
78542;SDS011;67836;52.430;14.446;2023-09-30T04:36:42;5.30;;;1.77;;
78542;SDS011;67836;52.430;14.446;2023-09-30T04:39:26;7.25;;;1.70;;
78542;SDS011;67836;52.430;14.446;2023-09-30T04:42:11;6.05;;;1.38;;
78542;SDS011;67836;52.430;14.446;2023-09-30T04:44:55;5.93;;;1.85;;
78542;SDS011;67836;52.430;14.446;2023-09-30T04:47:39;6.15;;;2.05;;
78542;SDS011;67836;52.430;14.446;2023-09-30T04:50:23;9.23;;;2.15;;
78542;SDS011;67836;52.430;14.446;2023-09-30T04:53:07;7.50;;;2.10;;
78542;SDS011;67836;52.430;14.446;2023-09-30T04:55:52;9.63;;;2.10;;
78542;SDS011;67836;52.430;14.446;2023-09-30T04:58:36;4.88;;;2.15;;
78542;SDS011;67836;52.430;14.446;2023-09-30T05:04:04;4.82;;;1.58;;
78542;SDS011;67836;52.430;14.446;2023-09-30T05:09:31;14.88;;;2.40;;
78542;SDS011;67836;52.430;14.446;2023-09-30T05:12:15;6.10;;;1.20;;
78542;SDS011;67836;52.430;14.446;2023-09-30T05:14:59;9.75;;;2.25;;
78542;SDS011;67836;52.430;14.446;2023-09-30T05:17:43;10.20;;;2.40;;
78542;SDS011;67836;52.430;14.446;2023-09-30T05:20:27;6.70;;;1.77;;
78542;SDS011;67836;52.430;14.446;2023-09-30T05:23:11;6.80;;;1.77;;
78542;SDS011;67836;52.430;14.446;2023-09-30T05:25:58;6.50;;;1.80;;
78542;SDS011;67836;52.430;14.446;2023-09-30T05:28:42;4.00;;;1.25;;
78542;SDS011;67836;52.430;14.446;2023-09-30T05:31:26;10.38;;;1.92;;
78542;SDS011;67836;52.430;14.446;2023-09-30T05:34:10;7.70;;;1.77;;
78542;SDS011;67836;52.430;14.446;2023-09-30T05:36:54;9.77;;;2.22;;
78542;SDS011;67836;52.430;14.446;2023-09-30T05:39:38;10.80;;;3.03;;
78542;SDS011;67836;52.430;14.446;2023-09-30T05:45:06;6.15;;;1.77;;
78542;SDS011;67836;52.430;14.446;2023-09-30T05:47:50;8.35;;;2.78;;
78542;SDS011;67836;52.430;14.446;2023-09-30T05:50:36;10.18;;;2.60;;
78542;SDS011;67836;52.430;14.446;2023-09-30T05:53:21;7.78;;;2.08;;
78542;SDS011;67836;52.430;14.446;2023-09-30T05:56:04;9.45;;;2.60;;
78542;SDS011;67836;52.430;14.446;2023-09-30T06:01:32;2.45;;;1.08;;
78542;SDS011;67836;52.430;14.446;2023-09-30T06:04:16;8.23;;;2.40;;
78542;SDS011;67836;52.430;14.446;2023-09-30T06:07:01;6.57;;;1.80;;
78542;SDS011;67836;52.430;14.446;2023-09-30T06:09:45;10.32;;;2.33;;
78542;SDS011;67836;52.430;14.446;2023-09-30T06:12:29;8.90;;;1.65;;
78542;SDS011;67836;52.430;14.446;2023-09-30T06:15:13;8.45;;;2.13;;
78542;SDS011;67836;52.430;14.446;2023-09-30T06:17:57;7.85;;;1.50;;
78542;SDS011;67836;52.430;14.446;2023-09-30T06:20:41;6.00;;;1.80;;
78542;SDS011;67836;52.430;14.446;2023-09-30T06:23:25;9.27;;;1.90;;
78542;SDS011;67836;52.430;14.446;2023-09-30T06:26:09;12.52;;;2.00;;
78542;SDS011;67836;52.430;14.446;2023-09-30T06:28:53;6.43;;;1.80;;
78542;SDS011;67836;52.430;14.446;2023-09-30T06:31:38;9.35;;;2.47;;
78542;SDS011;67836;52.430;14.446;2023-09-30T06:34:22;8.18;;;1.80;;
78542;SDS011;67836;52.430;14.446;2023-09-30T06:37:06;6.63;;;1.92;;
78542;SDS011;67836;52.430;14.446;2023-09-30T06:39:49;10.18;;;2.30;;
78542;SDS011;67836;52.430;14.446;2023-09-30T06:42:36;6.55;;;1.70;;
78542;SDS011;67836;52.430;14.446;2023-09-30T06:45:20;9.27;;;1.95;;
78542;SDS011;67836;52.430;14.446;2023-09-30T06:48:05;6.05;;;1.25;;
78542;SDS011;67836;52.430;14.446;2023-09-30T06:53:33;6.72;;;2.13;;
78542;SDS011;67836;52.430;14.446;2023-09-30T06:56:16;5.22;;;1.70;;
78542;SDS011;67836;52.430;14.446;2023-09-30T06:59:00;4.35;;;1.35;;
78542;SDS011;67836;52.430;14.446;2023-09-30T07:01:45;5.30;;;1.45;;
78542;SDS011;67836;52.430;14.446;2023-09-30T07:04:29;11.75;;;2.08;;
78542;SDS011;67836;52.430;14.446;2023-09-30T07:07:13;7.68;;;1.80;;
78542;SDS011;67836;52.430;14.446;2023-09-30T07:09:59;7.25;;;2.13;;
78542;SDS011;67836;52.430;14.446;2023-09-30T07:12:43;7.75;;;1.27;;
78542;SDS011;67836;52.430;14.446;2023-09-30T07:15:28;5.80;;;1.38;;
78542;SDS011;67836;52.430;14.446;2023-09-30T07:18:12;6.45;;;1.35;;
78542;SDS011;67836;52.430;14.446;2023-09-30T07:20:55;6.63;;;2.53;;
78542;SDS011;67836;52.430;14.446;2023-09-30T07:23:39;6.80;;;1.80;;
78542;SDS011;67836;52.430;14.446;2023-09-30T07:26:25;5.38;;;1.67;;
78542;SDS011;67836;52.430;14.446;2023-09-30T07:29:09;10.73;;;2.63;;
78542;SDS011;67836;52.430;14.446;2023-09-30T07:31:54;9.48;;;2.90;;
78542;SDS011;67836;52.430;14.446;2023-09-30T07:34:38;7.10;;;2.00;;
78542;SDS011;67836;52.430;14.446;2023-09-30T07:37:22;8.88;;;2.08;;
78542;SDS011;67836;52.430;14.446;2023-09-30T07:40:07;12.40;;;2.67;;
78542;SDS011;67836;52.430;14.446;2023-09-30T07:42:51;5.78;;;2.35;;
78542;SDS011;67836;52.430;14.446;2023-09-30T07:45:35;10.63;;;2.10;;
78542;SDS011;67836;52.430;14.446;2023-09-30T07:48:18;8.02;;;1.83;;
78542;SDS011;67836;52.430;14.446;2023-09-30T07:51:03;8.75;;;2.13;;
78542;SDS011;67836;52.430;14.446;2023-09-30T07:53:48;10.00;;;2.10;;
78542;SDS011;67836;52.430;14.446;2023-09-30T07:56:32;8.20;;;2.05;;
78542;SDS011;67836;52.430;14.446;2023-09-30T07:59:16;10.15;;;2.55;;
78542;SDS011;67836;52.430;14.446;2023-09-30T08:02:01;8.68;;;2.72;;
78542;SDS011;67836;52.430;14.446;2023-09-30T08:04:45;5.60;;;2.42;;
78542;SDS011;67836;52.430;14.446;2023-09-30T08:07:29;5.63;;;2.08;;
78542;SDS011;67836;52.430;14.446;2023-09-30T08:10:13;6.75;;;1.80;;
78542;SDS011;67836;52.430;14.446;2023-09-30T08:12:57;7.07;;;2.17;;
78542;SDS011;67836;52.430;14.446;2023-09-30T08:15:42;8.75;;;2.13;;
78542;SDS011;67836;52.430;14.446;2023-09-30T08:18:26;6.05;;;1.60;;
78542;SDS011;67836;52.430;14.446;2023-09-30T08:21:10;7.20;;;1.73;;
78542;SDS011;67836;52.430;14.446;2023-09-30T08:23:55;4.18;;;1.08;;
78542;SDS011;67836;52.430;14.446;2023-09-30T08:26:39;6.03;;;1.30;;
78542;SDS011;67836;52.430;14.446;2023-09-30T08:29:23;6.47;;;1.90;;
78542;SDS011;67836;52.430;14.446;2023-09-30T08:32:07;8.82;;;2.08;;
78542;SDS011;67836;52.430;14.446;2023-09-30T08:34:51;6.03;;;1.75;;
78542;SDS011;67836;52.430;14.446;2023-09-30T08:37:35;6.68;;;1.13;;
78542;SDS011;67836;52.430;14.446;2023-09-30T08:43:03;11.10;;;2.85;;
78542;SDS011;67836;52.430;14.446;2023-09-30T08:45:48;6.70;;;1.67;;
78542;SDS011;67836;52.430;14.446;2023-09-30T08:48:32;4.75;;;1.50;;
78542;SDS011;67836;52.430;14.446;2023-09-30T08:51:17;5.25;;;2.00;;
78542;SDS011;67836;52.430;14.446;2023-09-30T08:54:00;10.38;;;1.90;;
78542;SDS011;67836;52.430;14.446;2023-09-30T08:56:47;7.78;;;2.08;;
78542;SDS011;67836;52.430;14.446;2023-09-30T08:59:33;7.60;;;2.17;;
78542;SDS011;67836;52.430;14.446;2023-09-30T09:02:19;7.57;;;2.72;;
78542;SDS011;67836;52.430;14.446;2023-09-30T09:05:03;8.70;;;2.20;;
78542;SDS011;67836;52.430;14.446;2023-09-30T09:07:47;8.57;;;1.95;;
78542;SDS011;67836;52.430;14.446;2023-09-30T09:13:15;7.68;;;1.73;;
78542;SDS011;67836;52.430;14.446;2023-09-30T09:16:05;6.82;;;2.03;;
78542;SDS011;67836;52.430;14.446;2023-09-30T09:18:49;7.88;;;2.35;;
78542;SDS011;67836;52.430;14.446;2023-09-30T09:21:33;8.55;;;2.25;;
78542;SDS011;67836;52.430;14.446;2023-09-30T09:24:38;8.40;;;2.05;;
78542;SDS011;67836;52.430;14.446;2023-09-30T09:27:26;6.45;;;2.22;;
78542;SDS011;67836;52.430;14.446;2023-09-30T09:33:03;6.60;;;2.05;;
78542;SDS011;67836;52.430;14.446;2023-09-30T09:35:48;11.25;;;2.85;;
78542;SDS011;67836;52.430;14.446;2023-09-30T09:38:44;7.03;;;2.03;;
78542;SDS011;67836;52.430;14.446;2023-09-30T09:41:28;10.70;;;2.05;;
78542;SDS011;67836;52.430;14.446;2023-09-30T09:47:40;6.07;;;1.70;;
78542;SDS011;67836;52.430;14.446;2023-09-30T09:50:24;5.35;;;1.15;;
78542;SDS011;67836;52.430;14.446;2023-09-30T09:53:08;4.40;;;1.55;;
78542;SDS011;67836;52.430;14.446;2023-09-30T09:55:52;9.15;;;2.33;;
78542;SDS011;67836;52.430;14.446;2023-09-30T12:59:38;3.83;;;0.77;;
78542;SDS011;67836;52.430;14.446;2023-09-30T14:12:38;5.35;;;1.23;;
78542;SDS011;67836;52.430;14.446;2023-09-30T14:15:26;6.07;;;1.10;;
78542;SDS011;67836;52.430;14.446;2023-09-30T14:18:12;5.65;;;1.00;;
78542;SDS011;67836;52.430;14.446;2023-09-30T14:20:55;4.82;;;1.20;;
78542;SDS011;67836;52.430;14.446;2023-09-30T14:23:39;3.83;;;1.00;;
78542;SDS011;67836;52.430;14.446;2023-09-30T14:26:23;4.50;;;0.82;;
78542;SDS011;67836;52.430;14.446;2023-09-30T14:29:08;7.15;;;2.10;;
78542;SDS011;67836;52.430;14.446;2023-09-30T14:31:51;4.30;;;1.27;;
78542;SDS011;67836;52.430;14.446;2023-09-30T14:34:36;4.90;;;1.13;;
78542;SDS011;67836;52.430;14.446;2023-09-30T14:37:20;2.13;;;0.65;;
78542;SDS011;67836;52.430;14.446;2023-09-30T14:40:04;4.15;;;1.08;;
78542;SDS011;67836;52.430;14.446;2023-09-30T14:42:49;6.80;;;1.00;;
78542;SDS011;67836;52.430;14.446;2023-09-30T14:45:39;3.33;;;0.80;;
78542;SDS011;67836;52.430;14.446;2023-09-30T14:48:22;7.80;;;3.20;;
78542;SDS011;67836;52.430;14.446;2023-09-30T14:51:07;6.63;;;1.20;;
78542;SDS011;67836;52.430;14.446;2023-09-30T14:53:51;3.78;;;0.90;;
78542;SDS011;67836;52.430;14.446;2023-09-30T14:56:35;5.30;;;1.13;;
78542;SDS011;67836;52.430;14.446;2023-09-30T14:59:19;6.35;;;1.10;;
78542;SDS011;67836;52.430;14.446;2023-09-30T15:02:03;6.45;;;1.13;;
78542;SDS011;67836;52.430;14.446;2023-09-30T15:04:47;4.40;;;0.82;;
78542;SDS011;67836;52.430;14.446;2023-09-30T15:07:31;5.93;;;1.20;;
78542;SDS011;67836;52.430;14.446;2023-09-30T15:10:15;3.58;;;0.93;;
78542;SDS011;67836;52.430;14.446;2023-09-30T15:12:58;3.88;;;0.65;;
78542;SDS011;67836;52.430;14.446;2023-09-30T15:15:42;5.60;;;1.10;;
78542;SDS011;67836;52.430;14.446;2023-09-30T15:18:42;5.55;;;0.98;;
78542;SDS011;67836;52.430;14.446;2023-09-30T15:21:31;4.95;;;1.27;;
78542;SDS011;67836;52.430;14.446;2023-09-30T15:24:15;5.28;;;1.10;;
78542;SDS011;67836;52.430;14.446;2023-09-30T15:26:58;6.03;;;1.00;;
78542;SDS011;67836;52.430;14.446;2023-09-30T15:29:42;4.93;;;1.00;;
78542;SDS011;67836;52.430;14.446;2023-09-30T15:32:27;6.65;;;1.17;;
78542;SDS011;67836;52.430;14.446;2023-09-30T15:35:11;4.50;;;1.10;;
78542;SDS011;67836;52.430;14.446;2023-09-30T15:37:55;7.38;;;1.02;;
78542;SDS011;67836;52.430;14.446;2023-09-30T15:40:52;5.20;;;0.93;;
78542;SDS011;67836;52.430;14.446;2023-09-30T15:43:41;6.88;;;1.13;;
78542;SDS011;67836;52.430;14.446;2023-09-30T15:46:24;5.00;;;1.08;;
78542;SDS011;67836;52.430;14.446;2023-09-30T15:49:08;4.93;;;1.00;;
78542;SDS011;67836;52.430;14.446;2023-09-30T15:51:52;6.90;;;1.08;;
78542;SDS011;67836;52.430;14.446;2023-09-30T15:54:37;4.50;;;0.70;;
78542;SDS011;67836;52.430;14.446;2023-09-30T15:57:20;3.63;;;0.80;;
78542;SDS011;67836;52.430;14.446;2023-09-30T16:00:05;2.95;;;0.60;;
78542;SDS011;67836;52.430;14.446;2023-09-30T16:02:51;4.43;;;0.77;;
78542;SDS011;67836;52.430;14.446;2023-09-30T16:05:35;6.85;;;1.00;;
78542;SDS011;67836;52.430;14.446;2023-09-30T16:08:23;7.03;;;0.90;;
78542;SDS011;67836;52.430;14.446;2023-09-30T16:11:06;3.83;;;1.00;;
78542;SDS011;67836;52.430;14.446;2023-09-30T16:13:50;5.05;;;1.00;;
78542;SDS011;67836;52.430;14.446;2023-09-30T16:16:35;4.32;;;0.90;;
78542;SDS011;67836;52.430;14.446;2023-09-30T16:19:19;3.88;;;1.00;;
78542;SDS011;67836;52.430;14.446;2023-09-30T16:22:03;5.95;;;0.80;;
78542;SDS011;67836;52.430;14.446;2023-09-30T16:24:46;4.03;;;0.95;;
78542;SDS011;67836;52.430;14.446;2023-09-30T16:27:33;4.32;;;0.90;;
78542;SDS011;67836;52.430;14.446;2023-09-30T16:30:18;3.75;;;0.85;;
78542;SDS011;67836;52.430;14.446;2023-09-30T16:33:02;2.83;;;1.05;;
78542;SDS011;67836;52.430;14.446;2023-09-30T16:35:47;2.72;;;0.80;;
78542;SDS011;67836;52.430;14.446;2023-09-30T16:38:34;4.10;;;0.90;;
78542;SDS011;67836;52.430;14.446;2023-09-30T16:41:18;4.32;;;1.38;;
78542;SDS011;67836;52.430;14.446;2023-09-30T16:44:04;3.25;;;1.02;;
78542;SDS011;67836;52.430;14.446;2023-09-30T16:46:47;4.25;;;1.27;;
78542;SDS011;67836;52.430;14.446;2023-09-30T16:49:33;1.63;;;0.77;;
78542;SDS011;67836;52.430;14.446;2023-09-30T16:52:18;2.45;;;0.80;;
78542;SDS011;67836;52.430;14.446;2023-09-30T16:55:01;3.50;;;1.33;;
78542;SDS011;67836;52.430;14.446;2023-09-30T17:00:29;4.53;;;1.05;;
78542;SDS011;67836;52.430;14.446;2023-09-30T17:03:15;2.47;;;0.80;;
78542;SDS011;67836;52.430;14.446;2023-09-30T17:05:58;2.72;;;0.60;;
78542;SDS011;67836;52.430;14.446;2023-09-30T17:08:42;5.72;;;0.90;;
78542;SDS011;67836;52.430;14.446;2023-09-30T17:11:26;6.72;;;1.10;;
78542;SDS011;67836;52.430;14.446;2023-09-30T17:16:54;3.88;;;0.70;;
78542;SDS011;67836;52.430;14.446;2023-09-30T17:19:40;4.80;;;1.20;;
78542;SDS011;67836;52.430;14.446;2023-09-30T17:22:24;2.33;;;0.88;;
78542;SDS011;67836;52.430;14.446;2023-09-30T17:25:08;2.45;;;1.10;;
78542;SDS011;67836;52.430;14.446;2023-09-30T17:27:52;3.80;;;1.38;;
78542;SDS011;67836;52.430;14.446;2023-09-30T17:30:36;8.02;;;2.88;;
78542;SDS011;67836;52.430;14.446;2023-09-30T17:33:21;6.35;;;2.10;;
78542;SDS011;67836;52.430;14.446;2023-09-30T17:36:05;5.45;;;1.77;;
78542;SDS011;67836;52.430;14.446;2023-09-30T17:38:50;7.85;;;3.20;;
78542;SDS011;67836;52.430;14.446;2023-09-30T17:41:34;9.80;;;3.42;;
78542;SDS011;67836;52.430;14.446;2023-09-30T17:44:18;8.88;;;3.20;;
78542;SDS011;67836;52.430;14.446;2023-09-30T17:47:02;7.80;;;3.78;;
78542;SDS011;67836;52.430;14.446;2023-09-30T17:49:47;7.35;;;3.50;;
78542;SDS011;67836;52.430;14.446;2023-09-30T17:52:31;8.00;;;3.42;;
78542;SDS011;67836;52.430;14.446;2023-09-30T17:55:15;8.32;;;3.10;;
78542;SDS011;67836;52.430;14.446;2023-09-30T18:00:47;4.25;;;1.77;;
78542;SDS011;67836;52.430;14.446;2023-09-30T18:03:31;2.90;;;1.27;;
78542;SDS011;67836;52.430;14.446;2023-09-30T18:06:15;1.10;;;0.80;;
78542;SDS011;67836;52.430;14.446;2023-09-30T18:08:59;1.95;;;0.90;;
78542;SDS011;67836;52.430;14.446;2023-09-30T18:14:26;2.58;;;0.93;;
78542;SDS011;67836;52.430;14.446;2023-09-30T18:17:10;2.70;;;1.35;;
78542;SDS011;67836;52.430;14.446;2023-09-30T18:19:54;1.98;;;1.33;;
78542;SDS011;67836;52.430;14.446;2023-09-30T18:22:38;6.70;;;3.33;;
78542;SDS011;67836;52.430;14.446;2023-09-30T18:25:23;4.13;;;2.20;;
78542;SDS011;67836;52.430;14.446;2023-09-30T18:28:06;5.35;;;2.65;;
78542;SDS011;67836;52.430;14.446;2023-09-30T18:30:50;3.00;;;1.58;;
78542;SDS011;67836;52.430;14.446;2023-09-30T18:33:34;8.55;;;3.60;;
78542;SDS011;67836;52.430;14.446;2023-09-30T18:36:18;4.32;;;1.98;;
78542;SDS011;67836;52.430;14.446;2023-09-30T18:44:30;7.72;;;2.60;;
78542;SDS011;67836;52.430;14.446;2023-09-30T18:47:13;3.90;;;1.83;;
78542;SDS011;67836;52.430;14.446;2023-09-30T18:49:57;4.50;;;1.92;;
78542;SDS011;67836;52.430;14.446;2023-09-30T18:52:42;3.65;;;1.80;;
78542;SDS011;67836;52.430;14.446;2023-09-30T18:55:26;7.53;;;2.00;;
78542;SDS011;67836;52.430;14.446;2023-09-30T19:00:53;3.33;;;1.95;;
78542;SDS011;67836;52.430;14.446;2023-09-30T19:03:37;3.22;;;1.65;;
78542;SDS011;67836;52.430;14.446;2023-09-30T19:06:21;4.15;;;1.92;;
78542;SDS011;67836;52.430;14.446;2023-09-30T19:11:52;1.75;;;1.05;;
78542;SDS011;67836;52.430;14.446;2023-09-30T19:14:36;5.68;;;2.42;;
78542;SDS011;67836;52.430;14.446;2023-09-30T19:17:20;5.28;;;1.35;;
78542;SDS011;67836;52.430;14.446;2023-09-30T19:22:47;4.35;;;2.03;;
78542;SDS011;67836;52.430;14.446;2023-09-30T19:25:31;7.65;;;3.33;;
78542;SDS011;67836;52.430;14.446;2023-09-30T19:30:58;3.42;;;1.65;;
78542;SDS011;67836;52.430;14.446;2023-09-30T19:33:42;2.85;;;1.27;;
78542;SDS011;67836;52.430;14.446;2023-09-30T19:36:26;6.22;;;2.47;;
78542;SDS011;67836;52.430;14.446;2023-09-30T19:39:11;5.40;;;2.00;;
78542;SDS011;67836;52.430;14.446;2023-09-30T19:41:55;3.70;;;2.15;;
78542;SDS011;67836;52.430;14.446;2023-09-30T19:44:39;6.82;;;3.08;;
78542;SDS011;67836;52.430;14.446;2023-09-30T19:47:24;5.93;;;2.50;;
78542;SDS011;67836;52.430;14.446;2023-09-30T19:50:09;5.63;;;1.85;;
78542;SDS011;67836;52.430;14.446;2023-09-30T19:52:52;2.03;;;1.20;;
78542;SDS011;67836;52.430;14.446;2023-09-30T19:55:36;3.30;;;1.52;;
78542;SDS011;67836;52.430;14.446;2023-09-30T19:58:21;2.97;;;1.73;;
78542;SDS011;67836;52.430;14.446;2023-09-30T20:01:07;12.52;;;2.53;;
78542;SDS011;67836;52.430;14.446;2023-09-30T20:03:51;3.17;;;1.67;;
78542;SDS011;67836;52.430;14.446;2023-09-30T20:06:35;2.95;;;1.77;;
78542;SDS011;67836;52.430;14.446;2023-09-30T20:09:20;4.97;;;1.88;;
78542;SDS011;67836;52.430;14.446;2023-09-30T20:12:06;4.63;;;1.65;;
78542;SDS011;67836;52.430;14.446;2023-09-30T20:14:51;2.47;;;1.45;;
78542;SDS011;67836;52.430;14.446;2023-09-30T20:17:35;4.28;;;1.50;;
78542;SDS011;67836;52.430;14.446;2023-09-30T20:23:03;4.40;;;2.05;;
78542;SDS011;67836;52.430;14.446;2023-09-30T20:25:47;7.50;;;2.63;;
78542;SDS011;67836;52.430;14.446;2023-09-30T20:28:31;5.20;;;2.00;;
78542;SDS011;67836;52.430;14.446;2023-09-30T20:31:16;6.38;;;2.05;;
78542;SDS011;67836;52.430;14.446;2023-09-30T20:34:00;5.10;;;2.33;;
78542;SDS011;67836;52.430;14.446;2023-09-30T20:36:44;4.25;;;2.03;;
78542;SDS011;67836;52.430;14.446;2023-09-30T20:39:28;4.22;;;1.98;;
78542;SDS011;67836;52.430;14.446;2023-09-30T20:42:12;5.57;;;2.35;;
78542;SDS011;67836;52.430;14.446;2023-09-30T20:44:56;8.32;;;2.67;;
78542;SDS011;67836;52.430;14.446;2023-09-30T20:47:40;4.70;;;1.60;;
78542;SDS011;67836;52.430;14.446;2023-09-30T20:53:07;1.88;;;1.00;;
78542;SDS011;67836;52.430;14.446;2023-09-30T20:55:51;4.53;;;1.73;;
78542;SDS011;67836;52.430;14.446;2023-09-30T20:58:35;6.93;;;2.60;;
78542;SDS011;67836;52.430;14.446;2023-09-30T21:04:03;4.57;;;1.67;;
78542;SDS011;67836;52.430;14.446;2023-09-30T21:09:30;7.03;;;2.08;;
78542;SDS011;67836;52.430;14.446;2023-09-30T21:12:15;8.23;;;2.97;;
78542;SDS011;67836;52.430;14.446;2023-09-30T21:17:42;7.10;;;2.67;;
78542;SDS011;67836;52.430;14.446;2023-09-30T21:20:27;4.30;;;1.83;;
78542;SDS011;67836;52.430;14.446;2023-09-30T21:23:11;3.72;;;1.70;;
78542;SDS011;67836;52.430;14.446;2023-09-30T21:28:40;3.28;;;1.30;;
78542;SDS011;67836;52.430;14.446;2023-09-30T21:31:29;4.10;;;1.65;;
78542;SDS011;67836;52.430;14.446;2023-09-30T21:34:12;3.58;;;1.83;;
78542;SDS011;67836;52.430;14.446;2023-09-30T21:36:56;5.07;;;1.80;;
78542;SDS011;67836;52.430;14.446;2023-09-30T21:39:40;6.68;;;2.25;;
78542;SDS011;67836;52.430;14.446;2023-09-30T21:42:24;5.30;;;2.22;;
78542;SDS011;67836;52.430;14.446;2023-09-30T21:47:51;4.70;;;1.92;;